Terminal Aerodrome Forecast
Issued by NWS

Home | Current Version | Previous Version | Text Only | Print | Product List | Glossary On
Versions: 1 2 3 4 5 6 7 8 9 10 11 12 13 14 15 16 17 18 19 20 21 22 23 24 25 26 27 28 29 30 31 32 33 34 35 36 37 38 39 40 41 42 43 44 45 46 47 48 49 50
000
FTUS44 KHGX 191141
TAFSGR
TAF
KSGR 191141Z 1912/2012 33008KT 6SM -SHRA BR OVC004
      TEMPO 1912/1914 5SM -TSRA BR BKN004 OVC015CB
     FM191500 25006KT 6SM BR VCSH OVC007
     FM191800 23007KT P6SM BKN007 BKN015
     FM192100 21008KT P6SM BKN025
     FM200200 VRB04KT 4SM BR BKN010
     FM200600 VRB04KT 2SM BR OVC007
      TEMPO 2009/2012 1/2SM FG OVC002=

USA.gov is the U.S. government's official web portal to all federal, state and local government web resources and services.